Hovedside
METAR-TAF:

METAR-TAF

Lufthavner :

Västerås lufthavn

Västerås, Sverige

breddegrad: 59-35N, lengdegrad: 016-38E, høyde over havet: 6 m

Gjeldene værobservasjon

Denne rapporten ble laget for 36 minutter siden, klokken 04:20 UTC
Vind 4 kt fra Nordøst
Temperatur 11°C
Luftfuktighet 87%
Trykk 1003 hPa
Sikt 10 km eller mer
duskregn

METAR: ESOW 210420Z AUTO 05004KT 9999 DZ FEW043/// OVC076/// 11/09 Q1003 REDZ

Tid: 06:56 (04:56 UTC)

Varsel

Denne rapporten ble laget for 14 timer og 26 minutter siden, klokken 14:30 UTC
Varsel gyldig fra 20. klokken 15 UTC til 20. klokken 17 UTC
Vind 15 kt fra Vest-sørvest med vindkast opp mot 25 kt
Sikt 10 km eller mer
ingen skyer under 1500 m og ingen bygeskyer
Sannsynlighet 40%
fra 20. klokken 16 UTC til 20. klokken 17 UTC
regn

TAF: ESOW 201430Z 2015/2017 24015G25KT CAVOK PROB40 2016/2017 RA

Værobservasjoner og værvarsel for over 4000 flyplasser (METAR- og TAF-rapporter).

Tilgjengelige stasjoner er representert av de røde og gule prikkene på kartet.

Hold musepekeren over prikken for å se navnet på stasjonen.

Klikk så for å se værobservasjoner og -varsler.

For å forandre kartet kan du klikke på den grønne knappen med svart kryss for å zoome inn, på den grønne knappen med strek for å zoome ut, eller på de grønne pilene for å se tilstøtende kart.


METAR-TAF: